Time;durP1;ratioP1;P1;durP2;ratioP2;P2;SDS_P1;SDS_P2;PMS_P1;PMS_P2;Temp;Humidity;BMP_temperature;BMP_pressure;BME280_temperature;BME280_humidity;BME280_pressure;Samples;Min_cycle;Max_cycle;Signal;HPM_P1;HPM_P2
2022/09/29 00:01:41;;;;;;;8.35;5.63;;;;;;;14.95;97.83;98959.56;6177341;23;20005;-72
2022/09/29 00:04:08;;;;;;;9.18;5.63;;;;;;;14.96;98.17;98955.81;6150848;23;20023;-72
2022/09/29 00:06:33;;;;;;;7.72;5.88;;;;;;;14.95;98.37;98948.75;6151022;23;20547;-72
2022/09/29 00:08:59;;;;;;;8.05;5.93;;;;;;;14.94;98.67;98939.00;6177088;23;20028;-72
2022/09/29 00:11:24;;;;;;;7.07;5.72;;;;;;;14.89;98.91;98938.75;6177832;23;20005;-71
2022/09/29 00:13:50;;;;;;;7.43;5.35;;;;;;;14.92;98.94;98934.81;6177340;23;20425;-72
2022/09/29 00:16:15;;;;;;;7.35;5.82;;;;;;;15.01;99.20;98956.09;6150906;23;20009;-72
2022/09/29 00:18:41;;;;;;;7.47;6.07;;;;;;;14.91;99.23;98930.44;6177303;23;20058;-72
2022/09/29 00:21:12;;;;;;;9.73;6.35;;;;;;;14.98;99.77;98945.69;6176849;23;20001;-72
2022/09/29 00:23:38;;;;;;;9.75;6.72;;;;;;;14.99;99.81;98943.81;6150763;23;20609;-72
2022/09/29 00:26:15;;;;;;;7.05;5.50;;;;;;;15.01;99.66;98936.34;6150797;23;20005;-72
2022/09/29 00:28:47;;;;;;;8.63;6.20;;;;;;;15.02;99.65;98930.75;6176749;23;20062;-72
2022/09/29 00:31:14;;;;;;;6.43;5.03;;;;;;;15.04;99.36;98926.00;6176546;23;20012;-72
2022/09/29 00:33:39;;;;;;;9.15;5.50;;;;;;;15.02;99.61;98922.66;6174737;23;20025;-64
2022/09/29 00:36:14;;;;;;;7.05;6.00;;;;;;;15.03;99.30;98924.31;6174642;23;20009;-65
2022/09/29 00:38:41;;;;;;;8.52;6.30;;;;;;;14.94;99.56;98920.13;6174566;23;20066;-64
2022/09/29 00:41:12;;;;;;;8.63;6.40;;;;;;;15.03;99.34;98929.72;6174801;23;20001;-64
2022/09/29 00:43:53;;;;;;;10.23;6.25;;;;;;;15.02;99.70;98933.44;6174633;23;20032;-64
2022/09/29 00:46:53;;;;;;;8.68;6.40;;;;;;;15.03;99.60;98928.88;6174671;23;20421;-65
2022/09/29 00:49:42;;;;;;;8.55;6.68;;;;;;;15.03;99.94;98926.19;6167955;23;20041;-64
2022/09/29 00:52:28;;;;;;;7.55;5.93;;;;;;;15.02;100.00;98919.09;6174467;23;20314;-64
2022/09/29 00:55:15;;;;;;;11.10;6.32;;;;;;;14.97;100.00;98906.22;6173601;23;20074;-64
2022/09/29 00:58:04;;;;;;;9.13;6.70;;;;;;;15.01;100.00;98918.28;6148172;23;20741;-65
2022/09/29 01:00:30;;;;;;;8.27;6.68;;;;;;;14.99;100.00;98912.25;6148376;23;20005;-64
2022/09/29 01:03:09;;;;;;;8.35;6.43;;;;;;;14.95;100.00;98892.06;6148461;23;20011;-64
2022/09/29 01:05:41;;;;;;;8.85;7.13;;;;;;;14.91;100.00;98896.19;6148097;22;20035;-64
2022/09/29 01:08:21;;;;;;;8.38;6.38;;;;;;;14.99;100.00;98895.22;6174372;23;20009;-65
2022/09/29 01:10:49;;;;;;;7.20;5.88;;;;;;;14.95;100.00;98881.28;6174205;23;20523;-65
2022/09/29 01:13:15;;;;;;;8.35;7.45;;;;;;;14.95;100.00;98877.72;6174315;23;20016;-64
2022/09/29 01:15:40;;;;;;;9.20;6.57;;;;;;;14.97;100.00;98886.47;6174346;23;20363;-64
2022/09/29 01:18:06;;;;;;;11.30;6.78;;;;;;;14.96;100.00;98880.22;6173831;23;20013;-64
2022/09/29 01:20:38;;;;;;;8.32;6.60;;;;;;;14.92;100.00;98873.56;6174445;23;20035;-64
2022/09/29 01:23:40;;;;;;;8.57;6.60;;;;;;;14.96;100.00;98887.50;6174156;23;20016;-64
2022/09/29 01:26:11;;;;;;;9.07;6.80;;;;;;;14.92;100.00;98892.47;6173860;23;20066;-64
2022/09/29 01:28:53;;;;;;;10.23;7.47;;;;;;;14.93;100.00;98894.13;6174985;23;20001;-72
2022/09/29 01:31:42;;;;;;;9.40;6.50;;;;;;;14.91;100.00;98889.97;6176382;23;20001;-71
2022/09/29 01:34:26;;;;;;;10.55;7.18;;;;;;;14.92;100.00;98905.13;6176404;23;20036;-71
2022/09/29 01:37:14;;;;;;;9.98;7.43;;;;;;;14.91;100.00;98907.00;6176620;23;20009;-71
2022/09/29 01:39:56;;;;;;;11.02;7.97;;;;;;;14.79;100.00;98878.88;6176971;23;20005;-71
2022/09/29 01:42:28;;;;;;;9.63;8.38;;;;;;;14.84;100.00;98889.94;6177259;23;20031;-71
2022/09/29 01:44:58;;;;;;;9.43;7.78;;;;;;;14.94;100.00;98893.13;6177055;23;20078;-72
2022/09/29 01:47:30;;;;;;;12.70;8.35;;;;;;;14.91;100.00;98885.41;6178594;23;20418;-72
2022/09/29 01:50:05;;;;;;;8.82;7.72;;;;;;;14.95;100.00;98873.16;6178386;23;20009;-71
2022/09/29 01:52:36;;;;;;;10.35;7.85;;;;;;;14.93;100.00;98877.13;6178044;23;20017;-70
2022/09/29 01:55:09;;;;;;;10.25;8.10;;;;;;;14.69;100.00;98831.66;6177981;23;20009;-72
2022/09/29 01:57:56;;;;;;;10.85;9.02;;;;;;;14.67;100.00;98834.56;6177775;23;20009;-72
2022/09/29 02:00:23;;;;;;;11.02;7.20;;;;;;;14.79;100.00;98841.09;6177856;23;20418;-71
2022/09/29 02:02:55;;;;;;;9.50;7.13;;;;;;;14.84;100.00;98873.72;6177954;23;20001;-72
2022/09/29 02:05:32;;;;;;;12.55;7.65;;;;;;;14.83;100.00;98860.44;6178056;23;20013;-72
2022/09/29 02:08:05;;;;;;;8.32;6.47;;;;;;;14.94;100.00;98874.22;6177813;23;20012;-72
2022/09/29 02:10:39;;;;;;;9.10;6.78;;;;;;;14.97;100.00;98868.41;6178690;23;20047;-72
2022/09/29 02:13:08;;;;;;;9.48;6.40;;;;;;;15.00;100.00;98869.88;6178300;23;20421;-72
2022/09/29 02:15:37;;;;;;;11.18;6.82;;;;;;;15.02;100.00;98863.25;6178347;23;20341;-72
2022/09/29 02:18:17;;;;;;;8.52;6.15;;;;;;;15.05;100.00;98865.56;6178012;23;20009;-72
2022/09/29 02:20:43;;;;;;;11.10;6.95;;;;;;;14.98;100.00;98842.25;6178035;23;20054;-72
2022/09/29 02:23:08;;;;;;;8.40;6.35;;;;;;;14.99;100.00;98839.34;6150091;23;20016;-72
2022/09/29 02:25:38;;;;;;;7.78;6.50;;;;;;;15.13;100.00;98869.97;6176107;23;20031;-72
2022/09/29 02:28:05;;;;;;;7.88;6.07;;;;;;;15.05;100.00;98848.50;6176247;23;20036;-72
2022/09/29 02:30:31;;;;;;;9.40;5.70;;;;;;;15.17;100.00;98863.13;6175967;23;20043;-72
2022/09/29 02:32:57;;;;;;;7.20;6.40;;;;;;;15.07;100.00;98849.16;6175800;23;20017;-72
2022/09/29 02:35:28;;;;;;;8.70;6.03;;;;;;;15.18;100.00;98868.34;6176092;23;20028;-72
2022/09/29 02:38:00;;;;;;;8.07;6.25;;;;;;;15.24;100.00;98880.19;6176316;23;20512;-72
2022/09/29 02:40:41;;;;;;;10.77;6.57;;;;;;;15.33;100.00;98898.75;6176368;23;20062;-72
2022/09/29 02:43:48;;;;;;;8.13;5.95;;;;;;;15.38;100.00;98928.72;6176135;23;20024;-72
2022/09/29 02:46:34;;;;;;;10.95;7.60;;;;;;;15.34;100.00;98930.13;6178104;23;20008;-72
2022/09/29 02:49:21;;;;;;;12.23;7.68;;;;;;;15.28;100.00;98930.94;6177774;23;20008;-73
2022/09/29 02:51:57;;;;;;;10.60;7.68;;;;;;;15.25;100.00;98928.63;6175785;23;20016;-73
2022/09/29 02:54:41;;;;;;;10.27;7.10;;;;;;;15.23;100.00;98905.56;6149584;23;20038;-72
2022/09/29 02:57:30;;;;;;;12.30;8.38;;;;;;;15.08;100.00;98865.16;6175672;23;20008;-72
2022/09/29 03:00:04;;;;;;;12.27;7.85;;;;;;;15.16;100.00;98875.78;6149637;23;20004;-72
2022/09/29 03:02:30;;;;;;;10.82;7.20;;;;;;;15.19;100.00;98864.59;6176331;23;20005;-71
2022/09/29 03:04:56;;;;;;;11.25;7.35;;;;;;;15.19;100.00;98870.00;6175799;23;20037;-72
2022/09/29 03:07:21;;;;;;;10.27;6.85;;;;;;;15.13;100.00;98876.19;6175506;23;20016;-72
2022/09/29 03:09:47;;;;;;;9.32;6.82;;;;;;;15.24;100.00;98889.16;6149541;23;20017;-72
2022/09/29 03:12:12;;;;;;;10.27;7.22;;;;;;;15.10;100.00;98865.81;6175736;23;20413;-72
2022/09/29 03:14:38;;;;;;;14.40;8.35;;;;;;;15.14;100.00;98875.16;6177415;23;20396;-72
2022/09/29 03:17:03;;;;;;;12.45;7.70;;;;;;;15.09;100.00;98866.00;6151262;22;20070;-72
2022/09/29 03:19:29;;;;;;;12.95;8.48;;;;;;;15.08;100.00;98872.41;6178040;23;20452;-72
2022/09/29 03:21:54;;;;;;;11.48;7.75;;;;;;;15.05;100.00;98862.00;6178258;23;19997;-72
2022/09/29 03:24:20;;;;;;;10.90;7.68;;;;;;;15.04;100.00;98869.28;6177964;23;20410;-72
2022/09/29 03:26:45;;;;;;;11.98;7.40;;;;;;;15.04;100.00;98881.94;6177945;23;20016;-72
2022/09/29 03:29:10;;;;;;;11.25;7.85;;;;;;;15.02;100.00;98867.81;6177326;23;20013;-72
2022/09/29 03:31:38;;;;;;;10.63;8.40;;;;;;;15.05;100.00;98881.75;6177435;23;20433;-72
2022/09/29 03:34:04;;;;;;;11.68;8.32;;;;;;;15.01;100.00;98875.09;6177563;23;20437;-71
2022/09/29 03:36:29;;;;;;;9.63;8.23;;;;;;;14.99;100.00;98885.25;6178298;23;20012;-72
2022/09/29 03:38:55;;;;;;;12.88;7.95;;;;;;;14.92;100.00;98868.16;6177954;23;20011;-72
2022/09/29 03:41:20;;;;;;;10.45;8.00;;;;;;;14.99;100.00;98889.81;6177715;23;19997;-72
2022/09/29 03:43:46;;;;;;;11.00;8.35;;;;;;;14.97;100.00;98881.06;6177417;23;20083;-72
2022/09/29 03:46:11;;;;;;;10.93;8.10;;;;;;;14.99;100.00;98887.94;6151027;23;20016;-72
2022/09/29 03:48:38;;;;;;;11.80;8.13;;;;;;;14.99;100.00;98892.53;6177608;23;20028;-72
2022/09/29 03:51:04;;;;;;;13.98;8.68;;;;;;;15.19;100.00;98925.88;6151208;23;20009;-72
2022/09/29 03:53:32;;;;;;;12.55;8.05;;;;;;;15.24;100.00;98931.50;6178085;23;20023;-72
2022/09/29 03:55:57;;;;;;;10.38;6.68;;;;;;;15.24;100.00;98920.72;6177734;23;20082;-72
2022/09/29 03:58:23;;;;;;;9.02;6.00;;;;;;;15.21;100.00;98940.00;6177963;23;20605;-72
2022/09/29 04:00:48;;;;;;;7.47;6.50;;;;;;;15.03;100.00;98918.91;6151543;23;20016;-72
2022/09/29 04:03:14;;;;;;;10.32;6.53;;;;;;;15.05;100.00;98938.47;6177468;23;20008;-72
2022/09/29 04:05:40;;;;;;;11.25;7.00;;;;;;;15.00;100.00;98931.97;6151447;23;20004;-72
2022/09/29 04:08:06;;;;;;;12.07;6.55;;;;;;;14.93;100.00;98931.09;6176440;23;20005;-72
2022/09/29 04:10:36;;;;;;;9.60;6.40;;;;;;;14.80;100.00;98899.41;6150984;22;20447;-72
2022/09/29 04:13:02;;;;;;;9.75;6.00;;;;;;;14.85;100.00;98904.22;6177116;23;20037;-72
2022/09/29 04:15:27;;;;;;;6.72;6.00;;;;;;;14.80;100.00;98896.72;6150491;23;20058;-72
2022/09/29 04:17:53;;;;;;;6.80;5.70;;;;;;;14.88;100.00;98891.19;6177682;23;20009;-72
2022/09/29 04:20:18;;;;;;;7.20;5.95;;;;;;;14.83;100.00;98888.25;6177310;23;20071;-72
2022/09/29 04:22:44;;;;;;;8.52;6.10;;;;;;;14.88;100.00;98887.66;6177513;23;20008;-72
2022/09/29 04:25:09;;;;;;;7.97;6.60;;;;;;;14.85;100.00;98875.38;6177383;23;20020;-72
2022/09/29 04:27:34;;;;;;;7.88;6.40;;;;;;;14.77;100.00;98867.41;6177355;23;20425;-72
2022/09/29 04:30:00;;;;;;;10.00;6.07;;;;;;;14.85;100.00;98885.34;6177250;23;20005;-72
2022/09/29 04:32:25;;;;;;;8.10;5.72;;;;;;;14.81;100.00;98889.47;6177284;23;20044;-72
2022/09/29 04:34:51;;;;;;;9.80;5.93;;;;;;;14.83;100.00;98887.44;6177143;23;20488;-72
2022/09/29 04:37:17;;;;;;;7.82;6.35;;;;;;;14.84;100.00;98886.38;6177252;23;20072;-72
2022/09/29 04:39:42;;;;;;;8.95;6.88;;;;;;;14.85;100.00;98888.88;6177205;23;20001;-72
2022/09/29 04:42:07;;;;;;;8.73;7.05;;;;;;;14.85;100.00;98888.03;6176600;23;20001;-72
2022/09/29 04:44:33;;;;;;;9.73;6.65;;;;;;;14.84;100.00;98889.94;6177339;23;20001;-72
2022/09/29 04:46:58;;;;;;;8.25;6.60;;;;;;;14.74;100.00;98878.59;6177213;23;20426;-72
2022/09/29 04:49:24;;;;;;;6.63;5.85;;;;;;;14.85;100.00;98902.38;6177275;23;20012;-72
2022/09/29 04:51:49;;;;;;;9.65;6.70;;;;;;;14.85;100.00;98901.53;6177260;23;20005;-72
2022/09/29 04:54:16;;;;;;;8.93;6.93;;;;;;;14.68;100.00;98878.56;6177081;23;20024;-72
2022/09/29 04:56:41;;;;;;;8.93;6.90;;;;;;;14.74;100.00;98892.09;6177054;23;20507;-71
2022/09/29 04:59:09;;;;;;;7.97;6.78;;;;;;;14.70;100.00;98888.13;6177089;23;20005;-72
2022/09/29 05:01:34;;;;;;;7.15;6.45;;;;;;;14.72;100.00;98887.94;6150996;23;20326;-72
2022/09/29 05:04:00;;;;;;;7.72;6.78;;;;;;;14.78;100.00;98890.72;6150611;23;20009;-72
2022/09/29 05:06:26;;;;;;;9.25;7.60;;;;;;;14.81;100.00;98903.81;6150615;23;20001;-72
2022/09/29 05:08:51;;;;;;;8.77;7.13;;;;;;;14.74;100.00;98899.38;6176696;23;20013;-72
2022/09/29 05:11:16;;;;;;;8.93;7.07;;;;;;;14.80;100.00;98912.91;6176885;23;20009;-72
2022/09/29 05:13:42;;;;;;;9.05;7.22;;;;;;;14.79;100.00;98903.16;6176761;23;20060;-72
2022/09/29 05:16:07;;;;;;;10.40;7.88;;;;;;;14.82;100.00;98915.41;6177350;23;20005;-73
2022/09/29 05:18:33;;;;;;;10.13;7.90;;;;;;;14.69;100.00;98894.56;6150618;22;20028;-72
2022/09/29 05:21:03;;;;;;;10.68;8.13;;;;;;;14.79;100.00;98900.47;6177959;23;20040;-72
2022/09/29 05:23:29;;;;;;;9.75;7.90;;;;;;;14.85;100.00;98905.09;6178145;23;20375;-73
2022/09/29 05:25:54;;;;;;;9.98;8.95;;;;;;;14.87;100.00;98904.88;6152103;23;20096;-72
2022/09/29 05:28:20;;;;;;;9.18;7.75;;;;;;;14.87;100.00;98905.69;6178101;23;20005;-72
2022/09/29 05:30:45;;;;;;;11.88;9.35;;;;;;;14.83;100.00;98893.63;6178364;23;20005;-72
2022/09/29 05:33:11;;;;;;;11.75;9.25;;;;;;;14.91;100.00;98906.16;6178045;23;20017;-72
2022/09/29 05:35:36;;;;;;;13.23;9.95;;;;;;;14.87;100.00;98900.31;6178163;23;20092;-73
2022/09/29 05:38:02;;;;;;;10.85;9.25;;;;;;;14.88;100.00;98895.75;6177728;23;20009;-72
2022/09/29 05:40:27;;;;;;;14.57;9.30;;;;;;;14.91;100.00;98907.00;6178076;23;20054;-72
2022/09/29 05:42:52;;;;;;;13.10;10.20;;;;;;;14.92;100.00;98913.22;6150916;23;20005;-72
2022/09/29 05:45:18;;;;;;;15.05;10.27;;;;;;;14.89;100.00;98903.66;6178171;23;20057;-72
2022/09/29 05:47:44;;;;;;;13.30;10.50;;;;;;;14.92;100.00;98903.25;6177707;23;20005;-73
2022/09/29 05:50:11;;;;;;;12.13;10.80;;;;;;;14.85;100.00;98883.50;6151025;23;20379;-72
2022/09/29 05:52:37;;;;;;;12.93;11.10;;;;;;;14.98;100.00;98898.94;6175635;23;20084;-72
2022/09/29 05:55:04;;;;;;;15.35;10.52;;;;;;;15.03;100.00;98912.69;6143938;22;20005;-72
2022/09/29 05:57:29;;;;;;;13.75;10.88;;;;;;;15.02;100.00;98898.34;6175791;23;20020;-72
2022/09/29 05:59:54;;;;;;;14.80;10.68;;;;;;;15.03;100.00;98910.81;6175744;23;20001;-72
2022/09/29 06:02:21;;;;;;;11.00;9.52;;;;;;;15.06;100.00;98905.00;6175776;23;20112;-72
2022/09/29 06:04:46;;;;;;;10.98;9.57;;;;;;;15.13;100.00;98923.97;6149741;22;20016;-72
2022/09/29 06:07:12;;;;;;;13.43;9.65;;;;;;;15.14;100.00;98917.53;6149544;23;20013;-72
2022/09/29 06:09:37;;;;;;;15.15;10.75;;;;;;;15.17;100.00;98917.13;6174855;23;20005;-73
2022/09/29 06:12:02;;;;;;;17.42;10.50;;;;;;;15.16;100.00;98899.28;6172649;23;20381;-72
2022/09/29 06:14:28;;;;;;;14.55;12.02;;;;;;;15.19;100.00;98904.28;6174204;23;20009;-73
2022/09/29 06:16:53;;;;;;;14.77;10.75;;;;;;;15.24;100.00;98899.94;6175755;23;20221;-73
2022/09/29 06:19:19;;;;;;;16.85;11.48;;;;;;;15.24;100.00;98908.06;6175916;23;20012;-73
2022/09/29 06:21:44;;;;;;;15.02;11.38;;;;;;;15.20;100.00;98895.13;6175677;23;19997;-72
2022/09/29 06:24:10;;;;;;;17.10;11.45;;;;;;;15.29;100.00;98905.56;6173897;23;20021;-73
2022/09/29 06:26:36;;;;;;;15.52;11.43;;;;;;;15.26;100.00;98900.56;6174289;23;20088;-72
2022/09/29 06:29:03;;;;;;;16.27;11.32;;;;;;;15.33;100.00;98911.44;6174600;23;20009;-72
2022/09/29 06:31:30;;;;;;;16.50;10.35;;;;;;;15.35;100.00;98920.19;6173402;23;20033;-72
2022/09/29 06:34:00;;;;;;;13.68;10.05;;;;;;;15.42;100.00;98923.78;6173273;23;20013;-73
2022/09/29 06:39:24;;;;;;;14.15;10.55;;;;;;;15.45;100.00;98904.47;6174363;23;20023;-73
2022/09/29 06:41:55;;;;;;;12.25;9.77;;;;;;;15.55;100.00;98915.75;6175096;22;20009;-73
2022/09/29 06:44:26;;;;;;;14.15;10.85;;;;;;;15.60;100.00;98908.69;6175617;23;20088;-72
2022/09/29 06:46:53;;;;;;;15.57;9.95;;;;;;;15.60;100.00;98911.41;6175400;23;20644;-72
2022/09/29 06:49:19;;;;;;;17.10;10.50;;;;;;;15.69;100.00;98933.69;6175644;23;20005;-72
2022/09/29 06:51:45;;;;;;;14.45;10.15;;;;;;;15.65;100.00;98927.88;6175420;23;20458;-72
2022/09/29 06:54:12;;;;;;;12.75;9.25;;;;;;;15.74;100.00;98942.84;6175349;23;20020;-72
2022/09/29 06:56:37;;;;;;;12.40;8.73;;;;;;;15.70;100.00;98925.38;6175673;23;20036;-72
2022/09/29 06:59:03;;;;;;;11.40;7.93;;;;;;;15.77;100.00;98937.03;6175632;23;20013;-72
2022/09/29 07:01:28;;;;;;;12.20;8.50;;;;;;;15.78;100.00;98932.47;6175302;23;20005;-72
2022/09/29 07:03:54;;;;;;;13.27;8.27;;;;;;;15.73;100.00;98924.13;6175092;23;20009;-72
2022/09/29 07:06:19;;;;;;;14.80;9.10;;;;;;;15.80;100.00;98942.06;6175284;23;20012;-72
2022/09/29 07:08:44;;;;;;;13.57;9.02;;;;;;;15.82;100.00;98933.75;6175535;23;20001;-72
2022/09/29 07:11:10;;;;;;;13.23;9.52;;;;;;;15.89;100.00;98951.66;6175347;23;20032;-72
2022/09/29 07:13:37;;;;;;;12.68;9.38;;;;;;;15.96;100.00;98948.97;6174997;23;20037;-72
2022/09/29 07:16:10;;;;;;;11.98;8.90;;;;;;;15.95;100.00;98939.19;6175182;23;20489;-72
2022/09/29 07:18:38;;;;;;;14.10;8.73;;;;;;;15.98;100.00;98937.94;6175240;23;20005;-72
2022/09/29 07:21:04;;;;;;;13.82;9.05;;;;;;;15.87;100.00;98926.69;6171422;23;20456;-72
2022/09/29 07:23:30;;;;;;;10.23;7.82;;;;;;;16.06;100.00;98951.31;6172716;23;20024;-72
2022/09/29 07:25:56;;;;;;;11.95;8.50;;;;;;;16.07;100.00;98948.41;6174254;23;20005;-72
2022/09/29 07:28:22;;;;;;;11.30;8.23;;;;;;;16.10;100.00;98956.13;6147911;23;20013;-72
2022/09/29 07:31:01;;;;;;;10.05;7.80;;;;;;;15.86;100.00;98913.38;6174061;23;20043;-72
2022/09/29 07:33:27;;;;;;;12.80;8.77;;;;;;;16.14;100.00;98946.56;6148026;23;20468;-72
2022/09/29 07:35:53;;;;;;;14.25;9.30;;;;;;;16.10;100.00;98936.34;6175352;23;20063;-72
2022/09/29 07:38:19;;;;;;;11.43;8.50;;;;;;;16.24;100.00;98955.13;6174995;23;20009;-72
2022/09/29 07:40:44;;;;;;;13.50;8.60;;;;;;;16.28;100.00;98950.97;6175320;23;20005;-72
2022/09/29 07:43:10;;;;;;;11.75;8.82;;;;;;;16.24;100.00;98941.59;6173230;23;20079;-72
2022/09/29 07:45:36;;;;;;;12.50;9.48;;;;;;;16.29;100.00;98940.97;6172396;23;20012;-72
2022/09/29 07:48:02;;;;;;;11.90;8.93;;;;;;;16.47;100.00;98961.03;6147370;23;20008;-72
2022/09/29 07:50:27;;;;;;;12.43;8.25;;;;;;;16.54;100.00;98974.59;6174225;23;20009;-72
2022/09/29 07:52:53;;;;;;;12.63;9.13;;;;;;;16.58;100.00;98983.97;6147426;22;20095;-72
2022/09/29 07:55:20;;;;;;;14.63;9.98;;;;;;;16.59;100.00;98991.03;6147294;23;20008;-72
2022/09/29 07:57:48;;;;;;;15.82;10.48;;;;;;;16.49;100.00;98964.38;6147650;22;20414;-72
2022/09/29 08:00:16;;;;;;;13.07;9.18;;;;;;;16.70;100.00;98995.88;6173927;23;20555;-72
2022/09/29 08:02:42;;;;;;;14.20;10.10;;;;;;;16.71;100.00;99000.22;6174280;23;20001;-72
2022/09/29 08:05:08;;;;;;;13.52;9.93;;;;;;;16.68;100.00;98997.94;6148044;23;20008;-72
2022/09/29 08:07:33;;;;;;;15.23;10.02;;;;;;;16.67;100.00;98999.78;6174535;23;20044;-72
2022/09/29 08:09:59;;;;;;;12.45;9.68;;;;;;;16.67;100.00;99001.69;6174169;23;20083;-72
2022/09/29 08:12:26;;;;;;;13.32;9.55;;;;;;;16.70;100.00;99012.09;6174665;23;20005;-72
2022/09/29 08:14:51;;;;;;;12.63;10.00;;;;;;;16.69;100.00;99003.16;6174258;23;20108;-72
2022/09/29 08:17:17;;;;;;;12.07;9.35;;;;;;;16.74;100.00;99025.03;6174504;23;20064;-72
2022/09/29 08:19:42;;;;;;;12.70;9.38;;;;;;;16.74;100.00;99026.91;6174470;23;20005;-72
2022/09/29 08:22:08;;;;;;;14.65;9.32;;;;;;;16.73;100.00;99019.81;6147623;22;20001;-72
2022/09/29 08:24:35;;;;;;;10.65;8.80;;;;;;;16.71;100.00;99016.47;6174656;23;20013;-72
2022/09/29 08:27:02;;;;;;;11.50;8.98;;;;;;;16.75;100.00;99021.28;6147508;23;20066;-72
2022/09/29 08:29:27;;;;;;;12.93;9.82;;;;;;;16.69;100.00;99005.84;6175097;23;20017;-72
2022/09/29 08:31:55;;;;;;;12.10;8.85;;;;;;;16.84;100.00;99032.75;6174692;23;20040;-72
2022/09/29 08:34:21;;;;;;;10.20;8.80;;;;;;;16.82;100.00;99021.28;6175022;23;20751;-72
2022/09/29 08:36:47;;;;;;;12.57;10.20;;;;;;;16.76;100.00;99013.97;6171235;23;20042;-72
2022/09/29 08:39:13;;;;;;;13.63;11.32;;;;;;;16.80;100.00;99012.53;6173992;23;20012;-72
2022/09/29 08:41:59;;;;;;;13.70;11.85;;;;;;;16.86;100.00;99020.66;6147441;22;20330;-72
2022/09/29 08:44:36;;;;;;;15.43;11.52;;;;;;;16.89;100.00;99022.97;6174254;23;20013;-72
2022/09/29 08:47:28;;;;;;;16.52;11.40;;;;;;;17.06;100.00;99026.94;6174370;23;20005;-72
2022/09/29 08:50:01;;;;;;;14.77;12.55;;;;;;;17.12;100.00;99031.53;6174460;23;20112;-72
2022/09/29 08:52:34;;;;;;;14.73;12.30;;;;;;;17.04;100.00;99029.03;6174910;23;20005;-72
2022/09/29 08:55:12;;;;;;;14.82;12.57;;;;;;;17.07;100.00;99028.63;6176287;23;20527;-72
2022/09/29 08:57:38;;;;;;;15.65;12.82;;;;;;;17.22;100.00;99010.25;6150478;22;20410;-72
2022/09/29 09:00:07;;;;;;;16.58;12.23;;;;;;;17.77;100.00;99036.13;6176443;23;20075;-72
2022/09/29 09:02:55;;;;;;;12.88;11.40;;;;;;;18.32;100.00;99038.25;6176568;23;20466;-73
2022/09/29 09:05:41;;;;;;;12.00;10.25;;;;;;;18.53;97.90;99028.97;6177888;23;20088;-73
2022/09/29 09:08:43;;;;;;;12.13;10.65;;;;;;;18.52;97.22;99030.88;6177166;23;20005;-72
2022/09/29 09:11:45;;;;;;;11.00;9.82;;;;;;;18.63;97.95;99048.38;6131841;23;20016;-73
2022/09/29 09:14:23;;;;;;;11.95;10.45;;;;;;;18.63;96.52;99051.09;6177456;23;20009;-72
2022/09/29 09:16:57;;;;;;;10.50;9.38;;;;;;;18.60;95.98;99054.25;6177545;23;20386;-72
2022/09/29 09:19:40;;;;;;;11.07;9.98;;;;;;;18.58;94.89;99068.03;6177473;23;20473;-72
2022/09/29 09:22:09;;;;;;;10.80;9.70;;;;;;;18.40;95.96;99073.31;6177030;23;20020;-72
2022/09/29 09:24:44;;;;;;;10.13;9.13;;;;;;;18.38;95.41;99071.88;6177326;23;20015;-72
2022/09/29 09:27:18;;;;;;;10.20;8.55;;;;;;;18.07;96.32;99037.28;6177393;23;20401;-72
2022/09/29 09:29:45;;;;;;;8.52;7.72;;;;;;;18.24;98.25;99038.47;6151068;23;20070;-72
2022/09/29 09:32:32;;;;;;;11.77;8.35;;;;;;;18.60;95.41;99071.34;6176967;23;20392;-72
2022/09/29 09:35:11;;;;;;;7.93;7.10;;;;;;;18.96;93.98;99066.13;6150697;23;20017;-72
2022/09/29 09:37:40;;;;;;;8.73;7.00;;;;;;;19.16;90.13;99058.72;6177660;23;20458;-72
2022/09/29 09:40:25;;;;;;;8.43;7.22;;;;;;;19.14;87.90;99059.94;6176922;23;20015;-72
2022/09/29 09:43:13;;;;;;;10.77;7.13;;;;;;;18.92;88.31;99056.75;6177053;23;20001;-72
2022/09/29 09:45:55;;;;;;;10.18;7.15;;;;;;;18.84;88.90;99061.63;6176996;23;20001;-72
2022/09/29 09:48:29;;;;;;;9.70;7.90;;;;;;;19.10;87.86;99070.44;6177000;23;20024;-72
2022/09/29 09:50:57;;;;;;;11.10;8.07;;;;;;;19.55;86.94;99068.47;6177282;23;20001;-72
2022/09/29 09:53:33;;;;;;;9.25;7.25;;;;;;;20.52;83.69;99077.53;6150596;23;20039;-72
2022/09/29 09:56:16;;;;;;;7.80;6.88;;;;;;;22.74;68.74;99066.50;6176725;23;20021;-72
2022/09/29 09:58:56;;;;;;;6.55;5.93;;;;;;;24.97;58.27;99048.66;6150158;23;20004;-72
2022/09/29 10:01:22;;;;;;;6.18;5.10;;;;;;;26.67;52.41;99044.56;6150897;23;20084;-72
2022/09/29 10:03:47;;;;;;;7.35;5.18;;;;;;;28.12;47.87;99050.25;6177105;23;20105;-72
2022/09/29 10:06:12;;;;;;;6.93;6.22;;;;;;;27.83;47.81;99056.59;6176578;23;20024;-72
2022/09/29 10:08:41;;;;;;;6.53;5.93;;;;;;;26.76;50.14;99075.94;6176667;23;20077;-72
2022/09/29 10:11:30;;;;;;;7.32;6.40;;;;;;;25.52;53.35;99079.44;6150611;23;20008;-72
2022/09/29 10:13:58;;;;;;;8.75;7.15;;;;;;;24.93;55.93;99083.19;6176733;23;20059;-72
2022/09/29 10:16:31;;;;;;;7.25;6.50;;;;;;;24.68;55.96;99074.66;6176773;23;20338;-72
2022/09/29 10:18:56;;;;;;;8.05;6.70;;;;;;;24.72;55.16;99075.81;6176875;23;20005;-72
2022/09/29 10:21:25;;;;;;;8.30;7.20;;;;;;;24.30;56.03;99072.75;6150464;23;20016;-72
2022/09/29 10:23:55;;;;;;;8.00;7.18;;;;;;;23.98;57.94;99071.75;6177010;23;20054;-72
2022/09/29 10:26:24;;;;;;;8.63;7.22;;;;;;;23.34;59.19;99072.31;6176597;23;20013;-72
2022/09/29 10:28:54;;;;;;;7.90;7.10;;;;;;;22.96;60.72;99063.91;6176786;23;20046;-72
2022/09/29 10:31:20;;;;;;;6.70;6.10;;;;;;;22.92;60.52;99090.88;6176668;23;20009;-71
2022/09/29 10:33:49;;;;;;;8.02;7.22;;;;;;;22.66;61.47;99096.09;6176585;23;20028;-72
2022/09/29 10:36:19;;;;;;;7.55;6.13;;;;;;;22.29;63.46;99082.69;6176458;23;20040;-72
2022/09/29 10:38:50;;;;;;;7.05;6.35;;;;;;;22.04;64.28;99105.88;6176992;23;20323;-72
2022/09/29 10:41:18;;;;;;;6.93;6.22;;;;;;;21.74;65.99;99110.63;6176697;23;20008;-72
2022/09/29 10:43:46;;;;;;;7.97;7.00;;;;;;;21.52;67.68;99120.38;6150707;23;20009;-72
2022/09/29 10:46:47;;;;;;;8.30;7.50;;;;;;;21.19;68.33;99104.53;6176974;23;20036;-72
2022/09/29 10:49:18;;;;;;;9.45;7.53;;;;;;;21.02;69.41;99121.78;6176571;23;20009;-72
2022/09/29 10:52:24;;;;;;;8.23;6.88;;;;;;;20.62;72.07;99113.22;6176478;23;20054;-72
2022/09/29 10:55:04;;;;;;;8.27;7.35;;;;;;;20.49;72.83;99115.28;6176804;23;20030;-72
2022/09/29 10:57:32;;;;;;;8.93;7.60;;;;;;;20.27;74.74;99127.66;6177160;23;20012;-72
2022/09/29 10:59:59;;;;;;;8.77;7.32;;;;;;;20.26;73.57;99120.56;6176804;23;20076;-72
2022/09/29 11:02:38;;;;;;;7.07;6.40;;;;;;;20.14;75.81;99120.47;6176225;23;20001;-65
2022/09/29 11:05:20;;;;;;;7.18;5.72;;;;;;;20.00;73.90;99103.38;6148450;23;20115;-65
2022/09/29 11:07:49;;;;;;;6.80;5.80;;;;;;;20.04;74.26;99114.69;6174776;23;20713;-65
2022/09/29 11:10:26;;;;;;;7.03;6.13;;;;;;;19.91;75.04;99126.53;6175150;23;20005;-64
2022/09/29 11:12:52;;;;;;;5.63;5.07;;;;;;;19.82;76.34;99127.88;6175409;23;20040;-64
2022/09/29 11:15:37;;;;;;;7.18;4.90;;;;;;;19.74;76.49;99103.63;6149199;22;20072;-64
2022/09/29 11:18:18;;;;;;;8.13;5.60;;;;;;;19.76;76.99;99122.47;6174817;23;20437;-65
2022/09/29 11:20:54;;;;;;;6.88;5.10;;;;;;;19.77;75.70;99110.53;6148689;23;20032;-65
2022/09/29 11:23:49;;;;;;;7.18;5.38;;;;;;;19.85;75.36;99129.28;6148586;23;19997;-65
2022/09/29 11:26:37;;;;;;;6.18;5.55;;;;;;;19.77;74.56;99105.09;6173345;23;20017;-64
2022/09/29 11:29:13;;;;;;;5.43;4.88;;;;;;;19.75;76.73;99121.66;6174846;23;20428;-65
2022/09/29 11:31:48;;;;;;;5.78;5.05;;;;;;;19.71;77.56;99115.00;6175111;23;20039;-64
2022/09/29 11:34:16;;;;;;;;;;;;;;;19.69;77.62;99108.94;6175226;23;20033;-65
2022/09/29 11:36:44;;;;;;;3.83;3.45;;;;;;;19.82;76.10;99107.97;6174680;23;20385;-65
2022/09/29 11:39:28;;;;;;;3.72;3.30;;;;;;;19.74;76.19;99109.06;6175221;23;20445;-65
2022/09/29 11:42:03;;;;;;;4.65;3.83;;;;;;;19.69;75.95;99105.38;6145273;23;20044;-64